Impacts TAF Board INFO
FOR SITUATIONAL AWARENESS. NOT TO BE USED FOR FLIGHT PLANNING PURPOSES.
IDs:

KEWR - Newark Intl, NJ, US

Issued at 2331 UTC 11 Dec 2017
Updated at 0230 UTC 12 Dec 2017
Potential Impact None Slight Moderate High
Time<<12/15Z 12/16Z 12/17Z 12/18Z 12/19Z 12/20Z 12/21Z 12/22Z 12/23Z 13/00Z 13/01Z 13/02Z 13/03Z>>
Type PRVL PRVL PRVL PRVL PRVL PRVL PRVL PRVL PRVL PRVL PRVL PRVL PRVL
VIS 6 6 6 6 >6 >6 >6 >6 >6 >6 >6 >6 >6
CIG 25 25 25 25 60 60 60 60 50 50 50 50 50
Cover BKN BKN BKN BKN OVC OVC OVC OVC BKN BKN BKN BKN BKN
FltCat MVFR MVFR MVFR MVFR VFR VFR VFR VFR VFR VFR VFR VFR VFR
WX -RA -RA -RA -RA -- -- -- -- -- -- -- -- --
WDir 190 190 190 190 240 240 240 240 250 250 250 250 250
WSpd 10 10 10 10 12 12 12 12 16 16 16 16 16
WGst 18 18 18 18 -- -- -- -- 26 26 26 26 26

Raw TAF
KEWR 112331Z 1200/1306 27005KT P6SM FEW050 SCT120 OVC250
  FM120200 19005KT P6SM SCT040 BKN120
  FM120900 16007KT P6SM VCSH FEW025 BKN040
  FM121300 19010G18KT 6SM -RA BKN025
  FM121900 24012KT P6SM SCT025 OVC060
  FM122300 25016G26KT P6SM BKN050


METAR Board
Radar Display
Forecast Discussion

FOR SITUATIONAL AWARENESS. NOT TO BE USED FOR FLIGHT PLANNING PURPOSES.